createdAt,value
2019-04-16T00:01:23.713Z,88.11
2019-04-16T00:03:55.712Z,88.05
2019-04-16T00:06:39.655Z,87.98
2019-04-16T00:09:14.645Z,88.15
2019-04-16T00:11:49.415Z,87.45
2019-04-16T00:14:21.389Z,87.92
2019-04-16T00:16:51.874Z,88.03
2019-04-16T00:19:22.287Z,87.35
2019-04-16T00:22:12.594Z,87.54
2019-04-16T00:24:45.531Z,87.85
2019-04-16T00:27:16.095Z,87.92
2019-04-16T00:29:46.453Z,88.47
2019-04-16T00:32:18.540Z,88.13
2019-04-16T00:34:48.979Z,88.56
2019-04-16T00:37:21.294Z,88.48
2019-04-16T00:39:55.565Z,88.90
2019-04-16T00:42:23.745Z,88.82
2019-04-16T00:44:54.148Z,88.54
2019-04-16T00:47:24.616Z,88.43
2019-04-16T00:49:57.726Z,88.23
2019-04-16T00:52:27.349Z,88.61
2019-04-16T00:54:57.759Z,88.75
2019-04-16T00:57:28.231Z,88.32
2019-04-16T00:59:58.589Z,87.70
2019-04-16T01:02:29.061Z,87.71
2019-04-16T01:04:59.511Z,87.88
2019-04-16T01:07:30.081Z,87.65
2019-04-16T01:10:00.668Z,87.03
2019-04-16T01:12:31.185Z,86.68
2019-04-16T01:15:01.570Z,86.98
2019-04-16T01:17:33.365Z,87.20
2019-04-16T01:20:11.817Z,87.38
2019-04-16T01:22:40.294Z,87.48
2019-04-16T01:25:11.649Z,87.01
2019-04-16T01:27:43.761Z,87.37
2019-04-16T01:30:15.813Z,87.51
2019-04-16T01:32:57.127Z,87.72
2019-04-16T01:35:29.154Z,88.01
2019-04-16T01:38:16.305Z,88.01
2019-04-16T01:40:51.021Z,88.35
2019-04-16T01:43:25.485Z,87.56
2019-04-16T01:45:53.625Z,88.33
2019-04-16T01:48:24.155Z,88.62
2019-04-16T01:50:54.580Z,88.76
2019-04-16T01:53:25.182Z,88.37
2019-04-16T01:55:56.992Z,88.39
2019-04-16T01:58:27.815Z,88.63
2019-04-16T02:00:58.562Z,88.72
2019-04-16T02:03:29.166Z,88.36
2019-04-16T02:05:59.617Z,88.69
2019-04-16T02:08:31.148Z,88.13
2019-04-16T02:11:02.318Z,88.46
2019-04-16T02:13:32.871Z,88.23
2019-04-16T02:16:03.318Z,88.68
2019-04-16T02:18:33.787Z,88.46
2019-04-16T02:21:04.215Z,88.15
2019-04-16T02:23:34.841Z,88.09
2019-04-16T02:26:06.289Z,87.57
2019-04-16T02:28:36.821Z,87.48
2019-04-16T02:31:13.459Z,87.21
2019-04-16T02:33:39.458Z,86.69
2019-04-16T02:36:09.911Z,86.17
2019-04-16T02:38:46.268Z,86.00
2019-04-16T02:41:12.517Z,86.87
2019-04-16T02:43:43.020Z,87.02
2019-04-16T02:46:13.610Z,86.83
2019-04-16T02:48:49.995Z,87.71
2019-04-16T02:51:39.926Z,87.94
2019-04-16T02:54:09.835Z,87.83
2019-04-16T02:56:41.821Z,87.95
2019-04-16T02:59:19.559Z,87.67
2019-04-16T03:02:06.699Z,87.94
2019-04-16T03:04:58.334Z,87.92
2019-04-16T03:07:28.995Z,88.48
2019-04-16T03:10:01.452Z,88.66
2019-04-16T03:12:31.529Z,88.96
2019-04-16T03:15:02.783Z,88.99
2019-04-16T03:17:34.860Z,88.90
2019-04-16T03:20:08.790Z,89.18
2019-04-16T03:22:39.169Z,89.25
2019-04-16T03:25:13.575Z,89.40
2019-04-16T03:27:43.493Z,89.43
2019-04-16T03:30:14.142Z,89.49
2019-04-16T03:32:51.205Z,90.04
2019-04-16T03:35:25.163Z,89.58
2019-04-16T03:37:53.813Z,90.03
2019-04-16T03:40:25.759Z,90.37
2019-04-16T03:42:59.266Z,90.30
2019-04-16T03:45:28.625Z,90.35
2019-04-16T03:47:59.054Z,90.42
2019-04-16T03:50:31.302Z,89.94
2019-04-16T03:53:01.657Z,90.23
2019-04-16T03:55:32.135Z,89.74
2019-04-16T03:58:05.669Z,89.25
2019-04-16T04:00:34.754Z,88.94
2019-04-16T04:03:05.186Z,88.68
2019-04-16T04:05:35.789Z,89.04
2019-04-16T04:08:06.267Z,89.67
2019-04-16T04:10:37.765Z,89.55
2019-04-16T04:13:08.349Z,88.72
2019-04-16T04:15:38.833Z,89.06
2019-04-16T04:18:11.651Z,89.08
2019-04-16T04:20:41.883Z,88.83
2019-04-16T04:23:12.616Z,88.57
2019-04-16T04:25:43.207Z,88.96
2019-04-16T04:28:18.508Z,88.88
2019-04-16T04:30:48.756Z,88.37
2019-04-16T04:33:41.912Z,88.79
2019-04-16T04:36:11.152Z,88.93
2019-04-16T04:38:43.069Z,88.22
2019-04-16T04:41:13.549Z,88.49
2019-04-16T04:43:44.003Z,88.99
2019-04-16T04:46:15.611Z,88.79
2019-04-16T04:48:46.315Z,89.31
2019-04-16T04:51:16.778Z,89.34
2019-04-16T04:53:49.948Z,89.37
2019-04-16T04:56:20.085Z,88.93
2019-04-16T04:58:50.975Z,88.83
2019-04-16T05:01:21.463Z,88.47
2019-04-16T05:03:53.460Z,88.44
2019-04-16T05:06:40.452Z,88.74
2019-04-16T05:09:10.972Z,88.33
2019-04-16T05:11:41.426Z,88.88
2019-04-16T05:14:11.862Z,88.70
2019-04-16T05:16:42.321Z,88.60
2019-04-16T05:19:14.813Z,88.64
2019-04-16T05:21:49.639Z,89.65
2019-04-16T05:24:17.006Z,89.09
2019-04-16T05:26:47.462Z,89.08
2019-04-16T05:29:18.692Z,88.69
2019-04-16T05:31:49.367Z,88.23
2019-04-16T05:34:19.807Z,87.68
2019-04-16T05:36:50.294Z,87.27
2019-04-16T05:39:20.732Z,86.12
2019-04-16T05:41:52.956Z,86.69
2019-04-16T05:44:23.327Z,87.41
2019-04-16T05:46:53.841Z,86.75
2019-04-16T05:49:25.650Z,86.71
2019-04-16T05:51:56.586Z,87.11
2019-04-16T05:54:37.670Z,87.92
2019-04-16T05:57:18.882Z,88.55
2019-04-16T05:59:49.303Z,89.12
2019-04-16T06:02:24.319Z,88.51
2019-04-16T06:04:55.981Z,89.28
2019-04-16T06:07:27.104Z,89.05
2019-04-16T06:09:57.488Z,88.78
2019-04-16T06:12:32.473Z,88.10
2019-04-16T06:15:07.520Z,88.75
2019-04-16T06:17:52.470Z,88.03
2019-04-16T06:20:24.468Z,87.42
2019-04-16T06:23:00.896Z,87.42
2019-04-16T06:25:41.020Z,87.32
2019-04-16T06:28:22.986Z,86.46
2019-04-16T06:30:58.662Z,87.54
2019-04-16T06:33:39.627Z,87.37
2019-04-16T06:36:11.733Z,88.31
2019-04-16T06:38:46.632Z,87.98
2019-04-16T06:41:41.874Z,87.84
2019-04-16T06:44:08.826Z,87.93
2019-04-16T06:46:43.918Z,87.92
2019-04-16T06:49:21.935Z,88.27
2019-04-16T06:51:59.956Z,88.36
2019-04-16T06:54:33.077Z,89.14
2019-04-16T06:57:26.701Z,89.60
2019-04-16T07:00:14.855Z,89.06
2019-04-16T07:03:01.718Z,89.74
2019-04-16T07:05:23.692Z,89.84
2019-04-16T07:08:04.885Z,88.36
2019-04-16T07:10:44.443Z,88.65
2019-04-16T07:13:11.205Z,88.89
2019-04-16T07:15:41.348Z,89.02
2019-04-16T07:18:11.790Z,89.25
2019-04-16T07:20:45.734Z,89.65
2019-04-16T07:23:14.747Z,89.69
2019-04-16T07:25:45.716Z,90.02
2019-04-16T07:28:38.960Z,90.35
2019-04-16T07:31:25.921Z,90.05
2019-04-16T07:33:51.103Z,90.02
2019-04-16T07:36:35.718Z,90.03
2019-04-16T07:39:28.251Z,90.51
2019-04-16T07:42:11.353Z,90.10
2019-04-16T07:44:51.316Z,90.41
2019-04-16T07:47:35.919Z,90.99
2019-04-16T07:50:14.992Z,91.37
2019-04-16T07:52:47.070Z,92.17
2019-04-16T07:55:33.236Z,91.55
2019-04-16T07:58:05.058Z,91.53
2019-04-16T08:00:40.369Z,91.64
2019-04-16T08:03:07.838Z,91.69
2019-04-16T08:05:41.180Z,92.50
2019-04-16T08:08:10.972Z,92.83
2019-04-16T08:10:41.779Z,92.26
2019-04-16T08:13:16.591Z,91.54
2019-04-16T08:15:48.489Z,91.34
2019-04-16T08:18:19.128Z,92.03
2019-04-16T08:21:01.134Z,90.95
2019-04-16T08:23:26.515Z,90.44
2019-04-16T08:26:03.229Z,89.76
2019-04-16T08:28:31.405Z,89.99
2019-04-16T08:31:03.179Z,88.87
2019-04-16T08:33:35.686Z,88.61
2019-04-16T08:36:07.063Z,86.75
2019-04-16T08:38:38.291Z,86.75
2019-04-16T08:41:12.421Z,84.36
2019-04-16T08:43:42.810Z,84.36
2019-04-16T08:46:14.882Z,84.21
2019-04-16T08:48:49.934Z,84.84
2019-04-16T08:51:30.183Z,84.42
2019-04-16T08:53:55.812Z,85.31
2019-04-16T08:56:27.029Z,85.62
2019-04-16T08:59:01.545Z,85.62
2019-04-16T09:01:35.029Z,85.94
2019-04-16T09:04:06.345Z,85.75
2019-04-16T09:06:37.511Z,86.43
2019-04-16T09:09:24.437Z,86.43
2019-04-16T09:11:55.056Z,85.38
2019-04-16T09:14:27.673Z,86.95
2019-04-16T09:17:00.210Z,87.48
2019-04-16T09:19:31.338Z,86.88
2019-04-16T09:22:02.510Z,85.79
2019-04-16T09:24:41.682Z,83.25
2019-04-16T09:27:28.669Z,83.96
2019-04-16T09:30:17.154Z,84.59
2019-04-16T09:32:49.711Z,83.41
2019-04-16T09:35:32.637Z,82.76
2019-04-16T09:38:13.107Z,83.38
2019-04-16T09:41:11.287Z,83.54
2019-04-16T09:43:53.633Z,81.78
2019-04-16T09:46:49.622Z,81.78
2019-04-16T09:49:04.738Z,82.64
2019-04-16T09:51:51.119Z,82.64
2019-04-16T09:54:44.570Z,83.07
2019-04-16T09:57:24.076Z,82.28
2019-04-16T10:00:04.497Z,82.84
2019-04-16T10:02:37.746Z,80.35
2019-04-16T10:05:10.603Z,81.95
2019-04-16T10:07:44.005Z,80.81
2019-04-16T10:10:16.290Z,80.81
2019-04-16T10:12:50.970Z,80.96
2019-04-16T10:15:25.599Z,80.70
2019-04-16T10:17:58.610Z,81.18
2019-04-16T10:20:31.477Z,81.06
2019-04-16T10:23:12.736Z,82.54
2019-04-16T10:25:47.630Z,81.50
2019-04-16T10:28:26.295Z,83.60
2019-04-16T10:31:00.958Z,82.27
2019-04-16T10:33:32.915Z,81.09
2019-04-16T10:36:10.212Z,81.36
2019-04-16T10:41:38.358Z,82.57
2019-04-16T10:44:11.702Z,81.99
2019-04-16T10:46:47.873Z,79.50
2019-04-16T10:49:37.787Z,80.08
2019-04-16T10:52:18.207Z,81.46
2019-04-16T10:54:55.997Z,79.95
2019-04-16T10:57:47.556Z,79.90
2019-04-16T11:00:43.092Z,78.23
2019-04-16T11:03:21.075Z,77.46
2019-04-16T11:05:56.858Z,77.31
2019-04-16T11:08:25.971Z,76.90
2019-04-16T11:10:58.302Z,78.23
2019-04-16T11:13:32.440Z,77.88
2019-04-16T11:16:07.890Z,78.85
2019-04-16T11:18:38.837Z,80.96
2019-04-16T11:21:10.063Z,79.23
2019-04-16T11:23:40.868Z,79.63
2019-04-16T11:26:12.152Z,80.09
2019-04-16T11:28:44.406Z,78.36
2019-04-16T11:31:17.146Z,78.92
2019-04-16T11:33:48.013Z,80.42
2019-04-16T11:36:21.004Z,79.90
2019-04-16T11:38:53.866Z,81.96
2019-04-16T11:41:24.929Z,80.11
2019-04-16T11:43:55.991Z,80.26
2019-04-16T11:46:27.168Z,80.64
2019-04-16T11:48:58.880Z,80.57
2019-04-16T11:51:30.468Z,79.48
2019-04-16T11:54:01.547Z,80.31
2019-04-16T11:56:32.539Z,80.31
2019-04-16T11:59:10.232Z,80.19
2019-04-16T12:01:50.186Z,80.77
2019-04-16T12:04:46.956Z,80.77
2019-04-16T12:07:25.206Z,81.44
2019-04-16T12:09:58.480Z,81.44
2019-04-16T12:12:40.068Z,83.12
2019-04-16T12:15:15.250Z,83.15
2019-04-16T12:18:00.078Z,83.65
2019-04-16T12:20:47.799Z,84.09
2019-04-16T12:23:27.083Z,85.57
2019-04-16T12:26:10.412Z,81.60
2019-04-16T12:29:00.802Z,82.21
2019-04-16T12:31:33.678Z,83.28
2019-04-16T12:34:15.969Z,82.83
2019-04-16T12:36:51.776Z,83.87
2019-04-16T12:39:28.313Z,85.12
2019-04-16T12:42:07.417Z,84.59
2019-04-16T12:45:03.890Z,84.88
2019-04-16T12:47:41.378Z,84.08
2019-04-16T12:50:23.995Z,83.61
2019-04-16T12:52:58.295Z,84.84
2019-04-16T12:55:34.119Z,83.78
2019-04-16T12:58:13.135Z,82.55
2019-04-16T13:01:04.496Z,81.64
2019-04-16T13:03:38.075Z,81.56
2019-04-16T13:06:10.796Z,81.72
2019-04-16T13:08:53.636Z,83.04
2019-04-16T13:11:58.686Z,81.22
2019-04-16T13:14:37.634Z,80.19
2019-04-16T13:17:26.400Z,79.40
2019-04-16T13:20:14.657Z,79.59
2019-04-16T13:22:59.029Z,78.81
2019-04-16T13:25:43.636Z,79.80
2019-04-16T13:28:14.452Z,79.28
2019-04-16T13:30:45.819Z,80.42
2019-04-16T13:33:16.611Z,80.88
2019-04-16T13:35:56.508Z,80.06
2019-04-16T13:38:40.417Z,80.04
2019-04-16T13:41:10.640Z,79.32
2019-04-16T13:43:42.781Z,79.32
2019-04-16T13:46:15.341Z,80.38
2019-04-16T13:48:52.446Z,78.92
2019-04-16T13:51:31.729Z,77.92
2019-04-16T13:54:17.253Z,78.97
2019-04-16T13:56:51.584Z,77.85
2019-04-16T13:59:33.384Z,79.39
2019-04-16T14:02:06.888Z,77.53
2019-04-16T14:04:37.652Z,78.11
2019-04-16T14:07:08.523Z,77.08
2019-04-16T14:09:39.598Z,77.70
2019-04-16T14:12:12.853Z,77.91
2019-04-16T14:14:46.720Z,77.27
2019-04-16T14:17:18.616Z,76.81
2019-04-16T14:19:54.080Z,75.82
2019-04-16T14:22:24.613Z,76.63
2019-04-16T14:24:55.194Z,76.11
2019-04-16T14:27:25.695Z,75.05
2019-04-16T14:29:59.140Z,76.00
2019-04-16T14:32:28.797Z,76.00
2019-04-16T14:35:00.994Z,75.98
2019-04-16T14:37:31.694Z,76.26
2019-04-16T14:40:07.142Z,76.17
2019-04-16T14:42:37.892Z,77.09
2019-04-16T14:45:13.434Z,79.45
2019-04-16T14:47:44.232Z,76.78
2019-04-16T14:50:15.062Z,78.88
2019-04-16T14:52:45.949Z,77.54
2019-04-16T14:55:20.254Z,77.90
2019-04-16T14:58:11.923Z,77.61
2019-04-16T15:00:53.532Z,78.31
2019-04-16T15:03:43.462Z,78.28
2019-04-16T15:06:19.643Z,77.89
2019-04-16T15:09:08.562Z,77.69
2019-04-16T15:11:49.936Z,78.76
2019-04-16T15:14:35.992Z,79.25
2019-04-16T15:17:11.973Z,79.12
2019-04-16T15:19:42.557Z,78.84
2019-04-16T15:22:24.254Z,77.93
2019-04-16T15:25:14.432Z,78.18
2019-04-16T15:27:49.470Z,77.70
2019-04-16T15:30:28.369Z,77.90
2019-04-16T15:33:12.317Z,76.79
2019-04-16T15:35:46.818Z,77.09
2019-04-16T15:38:20.896Z,77.07
2019-04-16T15:40:53.934Z,78.59
2019-04-16T15:43:42.346Z,78.05
2019-04-16T15:46:26.192Z,78.83
2019-04-16T15:48:54.222Z,77.92
2019-04-16T15:51:44.472Z,77.88
2019-04-16T15:54:34.797Z,77.92
2019-04-16T15:57:23.074Z,77.41
2019-04-16T15:59:55.478Z,78.42
2019-04-16T16:02:30.490Z,78.90
2019-04-16T16:05:08.795Z,78.49
2019-04-16T16:07:40.878Z,79.69
2019-04-16T16:10:14.139Z,79.66
2019-04-16T16:12:44.802Z,80.05
2019-04-16T16:15:15.336Z,78.62
2019-04-16T16:17:45.790Z,80.37
2019-04-16T16:20:17.043Z,80.44
2019-04-16T16:22:47.530Z,80.47
2019-04-16T16:25:18.060Z,79.81
2019-04-16T16:27:48.539Z,79.87
2019-04-16T16:30:19.074Z,81.01
2019-04-16T16:32:49.567Z,81.75
2019-04-16T16:35:20.119Z,82.04
2019-04-16T16:37:50.612Z,82.07
2019-04-16T16:40:21.178Z,82.08
2019-04-16T16:42:52.590Z,82.08
2019-04-16T16:45:24.774Z,81.56
2019-04-16T16:47:55.247Z,80.27
2019-04-16T16:50:25.836Z,80.59
2019-04-16T16:53:03.956Z,80.74
2019-04-16T16:55:36.261Z,81.70
2019-04-16T16:58:08.631Z,82.67
2019-04-16T17:00:50.029Z,83.56
2019-04-16T17:03:22.201Z,82.82
2019-04-16T17:05:52.849Z,82.87
2019-04-16T17:08:23.366Z,82.42
2019-04-16T17:10:54.077Z,81.84
2019-04-16T17:13:24.598Z,82.20
2019-04-16T17:15:55.152Z,82.49
2019-04-16T17:18:25.664Z,82.95
2019-04-16T17:20:56.296Z,83.47
2019-04-16T17:23:26.864Z,83.07
2019-04-16T17:25:58.646Z,83.12
2019-04-16T17:28:29.259Z,83.09
2019-04-16T17:30:59.798Z,84.03
2019-04-16T17:33:30.284Z,83.76
2019-04-16T17:36:00.843Z,84.08
2019-04-16T17:38:33.891Z,83.78
2019-04-16T17:41:05.521Z,83.29
2019-04-16T17:43:38.514Z,83.53
2019-04-16T17:46:19.960Z,84.11
2019-04-16T17:48:58.179Z,84.17
2019-04-16T17:51:30.324Z,83.69
2019-04-16T17:54:05.524Z,83.71
2019-04-16T17:56:55.516Z,84.27
2019-04-16T17:59:33.350Z,84.05
2019-04-16T18:02:14.351Z,84.32
2019-04-16T18:04:55.635Z,84.50
2019-04-16T18:07:33.560Z,84.98
2019-04-16T18:10:26.586Z,84.81
2019-04-16T18:13:00.483Z,84.71
2019-04-16T18:15:42.561Z,84.70
2019-04-16T18:18:16.887Z,84.60
2019-04-16T18:20:58.548Z,84.93
2019-04-16T18:23:27.673Z,84.98
2019-04-16T18:26:15.058Z,85.24
2019-04-16T18:28:56.179Z,85.48
2019-04-16T18:31:34.035Z,85.75
2019-04-16T18:34:12.198Z,86.30
2019-04-16T18:36:47.171Z,86.50
2019-04-16T18:39:24.978Z,86.80
2019-04-16T18:41:56.992Z,86.47
2019-04-16T18:44:46.168Z,85.44
2019-04-16T18:47:24.327Z,86.04
2019-04-16T18:49:56.554Z,85.05
2019-04-16T18:52:27.010Z,85.49
2019-04-16T18:54:57.508Z,85.19
2019-04-16T18:57:27.920Z,85.50
2019-04-16T18:59:58.447Z,84.49
2019-04-16T19:02:30.473Z,85.79
2019-04-16T19:05:00.976Z,83.93
2019-04-16T19:07:31.451Z,84.05
2019-04-16T19:10:01.944Z,84.02
2019-04-16T19:12:32.405Z,82.93
2019-04-16T19:15:03.280Z,83.83
2019-04-16T19:17:33.871Z,83.32
2019-04-16T19:20:05.373Z,82.96
2019-04-16T19:22:35.912Z,83.21
2019-04-16T19:25:09.205Z,82.73
2019-04-16T19:27:38.955Z,82.67
2019-04-16T19:30:09.567Z,83.42
2019-04-16T19:32:40.028Z,82.65
2019-04-16T19:35:14.381Z,81.76
2019-04-16T19:37:42.716Z,82.34
2019-04-16T19:40:15.587Z,82.80
2019-04-16T19:42:45.483Z,82.46
2019-04-16T19:45:17.007Z,82.29
2019-04-16T19:47:47.593Z,82.68
2019-04-16T19:50:18.049Z,82.95
2019-04-16T19:52:48.489Z,82.67
2019-04-16T19:55:18.997Z,82.55
2019-04-16T19:57:49.449Z,83.05
2019-04-16T20:00:22.965Z,84.70
2019-04-16T20:02:52.148Z,83.71
2019-04-16T20:05:22.615Z,84.08
2019-04-16T20:07:53.182Z,83.85
2019-04-16T20:10:23.749Z,84.46
2019-04-16T20:12:57.427Z,83.76
2019-04-16T20:15:26.363Z,83.40
2019-04-16T20:17:57.127Z,84.63
2019-04-16T20:20:27.650Z,83.54
2019-04-16T20:22:59.657Z,83.45
2019-04-16T20:25:30.201Z,83.82
2019-04-16T20:28:00.678Z,82.18
2019-04-16T20:30:31.132Z,82.28
2019-04-16T20:33:01.633Z,81.87
2019-04-16T20:35:32.088Z,82.05
2019-04-16T20:38:04.332Z,81.78
2019-04-16T20:40:34.841Z,81.89
2019-04-16T20:43:05.290Z,82.32
2019-04-16T20:45:36.629Z,82.27
2019-04-16T20:48:09.068Z,82.30
2019-04-16T20:50:39.332Z,81.35
2019-04-16T20:53:09.754Z,82.41
2019-04-16T20:55:40.238Z,82.14
2019-04-16T20:58:10.637Z,82.83
2019-04-16T21:03:23.724Z,82.63
2019-04-16T21:05:59.225Z,81.91
2019-04-16T21:08:26.193Z,82.89
2019-04-16T21:10:58.918Z,82.87
2019-04-16T21:13:28.867Z,82.22
2019-04-16T21:16:01.328Z,82.96
2019-04-16T21:18:31.463Z,83.27
2019-04-16T21:21:01.848Z,83.17
2019-04-16T21:23:34.694Z,82.47
2019-04-16T21:26:04.437Z,82.58
2019-04-16T21:28:42.256Z,82.89
2019-04-16T21:31:17.066Z,83.52
2019-04-16T21:33:52.298Z,84.32
2019-04-16T21:36:37.004Z,83.82
2019-04-16T21:39:17.217Z,82.80
2019-04-16T21:41:44.441Z,82.45
2019-04-16T21:44:14.863Z,82.54
2019-04-16T21:46:46.196Z,82.79
2019-04-16T21:49:16.775Z,82.51
2019-04-16T21:52:05.571Z,82.81
2019-04-16T21:54:38.469Z,82.28
2019-04-16T21:57:13.129Z,80.59
2019-04-16T21:59:41.225Z,80.88
2019-04-16T22:02:13.957Z,81.80
2019-04-16T22:04:45.476Z,82.51
2019-04-16T22:07:16.538Z,82.89
2019-04-16T22:09:47.018Z,82.48
2019-04-16T22:12:17.455Z,83.23
2019-04-16T22:14:50.934Z,82.96
2019-04-16T22:17:20.069Z,82.92
2019-04-16T22:19:54.165Z,82.33
2019-04-16T22:22:22.615Z,82.17
2019-04-16T22:24:54.918Z,81.91
2019-04-16T22:27:25.227Z,81.66
2019-04-16T22:29:55.920Z,82.33
2019-04-16T22:32:26.991Z,83.05
2019-04-16T22:34:58.873Z,82.87
2019-04-16T22:37:29.400Z,82.80
2019-04-16T22:40:01.450Z,83.25
2019-04-16T22:42:33.462Z,82.45
2019-04-16T22:45:19.217Z,82.30
2019-04-16T22:47:52.168Z,81.63
2019-04-16T22:50:22.698Z,82.79
2019-04-16T22:52:53.123Z,82.77
2019-04-16T22:55:24.926Z,82.45
2019-04-16T22:57:55.694Z,82.33
2019-04-16T23:00:30.761Z,82.25
2019-04-16T23:03:01.149Z,84.19
2019-04-16T23:05:32.020Z,83.47
2019-04-16T23:08:02.877Z,83.80
2019-04-16T23:10:33.392Z,84.92
2019-04-16T23:13:03.833Z,86.81
2019-04-16T23:15:34.325Z,87.68
2019-04-16T23:18:04.751Z,89.00
2019-04-16T23:20:36.982Z,89.29
2019-04-16T23:23:07.639Z,89.67
2019-04-16T23:25:38.157Z,90.66
2019-04-16T23:28:10.635Z,91.04
2019-04-16T23:30:41.152Z,91.29
2019-04-16T23:33:11.595Z,90.83
2019-04-16T23:35:44.434Z,90.67
2019-04-16T23:38:14.291Z,91.15
2019-04-16T23:40:44.807Z,91.87
2019-04-16T23:43:25.883Z,92.47
2019-04-16T23:46:14.344Z,92.48
2019-04-16T23:48:47.894Z,92.86
2019-04-16T23:51:20.629Z,92.80
2019-04-16T23:53:52.612Z,92.94
2019-04-16T23:56:33.714Z,93.02
2019-04-16T23:59:17.997Z,93.32
